Terminal Aerodrome Forecast
Issued by NWS

Home | Current Version | Previous Version | Graphics & Text | Print | Product List | Glossary On
Versions: 1 2 3 4 5 6 7 8 9 10 11 12 13 14 15 16 17 18 19 20 21 22 23 24
368
FTUS43 KBIS 240504 AAB
TAFJMS
TAF AMD
KJMS 240504Z 2405/2424 19006KT P6SM VCTS SCT080CB BKN140
      TEMPO 2405/2407 24015G25KT 5SM -TSRA BKN070CB
     FM240700 VRB03KT P6SM FEW150 SCT200
     FM241700 16007KT P6SM FEW250=

USA.gov is the U.S. government's official web portal to all federal, state and local government web resources and services.